Bend, OR (97708)

12:06 AM PST on December 03, 2016 (GMT -0800)
River West | | Change Station

Elev 3694 ft 44.07 °N, 121.31 °W | Updated 12 seconds ago

Clear
Clear
39.9 °F
Feels Like 35 °F
N
7.6
Wind Variable Wind from SSW
Gusts 9.8 mph

Today
High -- | Low -- °F
--% Chance of Precip.
Yesterday
High -- | Low -- °F
Precip. -- in
Pressure 30.16 in
Visibility 10.0 miles
Clouds Clear
Windchill 35 °F
Dew Point 34 °F
Humidity 79%
Rainfall 0.00 in
Snow Depth Not available.
7:22 AM 4:27 PM
Waxing Crescent, 13% visible
METAR KBDN 030755Z AUTO 23007KT 10SM CLR 05/01 A3016 RMK AO2
Pressure 30.16 in
Visibility 10.0 miles
Clouds Clear
Windchill 35 °F
Dew Point 34 °F
Humidity 79%
Rainfall 0.00 in
Snow Depth Not available.
7:22 AM 4:27 PM
Waxing Crescent, 13% visible
METAR KBDN 030755Z AUTO 23007KT 10SM CLR 05/01 A3016 RMK AO2

10-Day Weather Forecast

Almanac

Astronomy

Dec. 03, 2016 Rise Set
Actual Time
Civil Twilight
Nautical Twilight
Astronomical Twilight
Moon
Length of Visible Light
Length of Day
Tomorrow will be .
, % of the Moon is Illuminated

Today's Extremes

State Highs State Lows

Community

WunderPhotos

Upload Photos

1,955,432 photos uploaded!

WunderBlog® & News

Nearby

Air Quality

  Air Quality AQ Index Pollutant
Not available.

Snow Depth

Station Depth Elevation

Earthquake Activity

City Distance Mag. Time & Date
Minimum magnitude displayed is 2.5.

Coastal Water Temperatures

Place Temperature

Stations

Nearby Weather Stations

Station Location Temp. Windchill Dew Point Humidity Wind Precip. Elev Updated Type
                   

Watches & Warnings

There are currently no watches in effect.